sensor_id;sensor_type;location;lat;lon;timestamp;P1;durP1;ratioP1;P2;durP2;ratioP2
43994;SDS011;51687;52.160;5.298;2022-07-29T00:02:24;2.03;;;0.80;;
43994;SDS011;51687;52.160;5.298;2022-07-29T00:04:52;1.42;;;0.73;;
43994;SDS011;51687;52.160;5.298;2022-07-29T00:07:19;2.80;;;0.88;;
43994;SDS011;51687;52.160;5.298;2022-07-29T00:09:46;2.13;;;1.08;;
43994;SDS011;51687;52.160;5.298;2022-07-29T00:12:17;7.57;;;1.30;;
43994;SDS011;51687;52.160;5.298;2022-07-29T00:14:51;2.38;;;1.42;;
43994;SDS011;51687;52.160;5.298;2022-07-29T00:17:25;5.75;;;1.00;;
43994;SDS011;51687;52.160;5.298;2022-07-29T00:19:52;4.40;;;1.27;;
43994;SDS011;51687;52.160;5.298;2022-07-29T00:22:19;4.53;;;0.90;;
43994;SDS011;51687;52.160;5.298;2022-07-29T00:24:47;2.50;;;0.80;;
43994;SDS011;51687;52.160;5.298;2022-07-29T00:29:41;3.22;;;0.98;;
43994;SDS011;51687;52.160;5.298;2022-07-29T00:32:08;2.72;;;0.90;;
43994;SDS011;51687;52.160;5.298;2022-07-29T00:34:35;1.17;;;0.77;;
43994;SDS011;51687;52.160;5.298;2022-07-29T00:37:20;2.47;;;1.00;;
43994;SDS011;51687;52.160;5.298;2022-07-29T00:39:47;3.22;;;1.17;;
43994;SDS011;51687;52.160;5.298;2022-07-29T00:42:14;1.92;;;0.70;;
43994;SDS011;51687;52.160;5.298;2022-07-29T00:44:42;4.75;;;1.17;;
43994;SDS011;51687;52.160;5.298;2022-07-29T00:47:10;2.72;;;1.00;;
43994;SDS011;51687;52.160;5.298;2022-07-29T00:49:38;4.63;;;1.10;;
43994;SDS011;51687;52.160;5.298;2022-07-29T00:54:33;3.13;;;0.93;;
43994;SDS011;51687;52.160;5.298;2022-07-29T00:57:05;2.03;;;0.82;;
43994;SDS011;51687;52.160;5.298;2022-07-29T00:59:33;2.65;;;0.90;;
43994;SDS011;51687;52.160;5.298;2022-07-29T01:02:01;3.33;;;1.05;;
43994;SDS011;51687;52.160;5.298;2022-07-29T01:04:29;2.58;;;0.90;;
43994;SDS011;51687;52.160;5.298;2022-07-29T01:06:57;2.55;;;1.00;;
43994;SDS011;51687;52.160;5.298;2022-07-29T01:09:26;1.30;;;0.95;;
43994;SDS011;51687;52.160;5.298;2022-07-29T01:12:13;1.30;;;0.85;;
43994;SDS011;51687;52.160;5.298;2022-07-29T01:14:42;2.33;;;1.00;;
43994;SDS011;51687;52.160;5.298;2022-07-29T01:19:51;2.00;;;0.95;;
43994;SDS011;51687;52.160;5.298;2022-07-29T01:22:37;3.60;;;1.20;;
43994;SDS011;51687;52.160;5.298;2022-07-29T01:28:16;2.55;;;1.08;;
43994;SDS011;51687;52.160;5.298;2022-07-29T01:30:44;4.28;;;1.08;;
43994;SDS011;51687;52.160;5.298;2022-07-29T01:33:12;1.60;;;0.80;;
43994;SDS011;51687;52.160;5.298;2022-07-29T01:36:05;2.03;;;0.80;;
43994;SDS011;51687;52.160;5.298;2022-07-29T01:38:38;2.10;;;0.90;;
43994;SDS011;51687;52.160;5.298;2022-07-29T01:41:12;2.55;;;1.10;;
43994;SDS011;51687;52.160;5.298;2022-07-29T01:43:53;4.20;;;1.10;;
43994;SDS011;51687;52.160;5.298;2022-07-29T01:46:37;2.75;;;1.10;;
43994;SDS011;51687;52.160;5.298;2022-07-29T01:49:08;1.70;;;0.80;;
43994;SDS011;51687;52.160;5.298;2022-07-29T01:51:43;2.78;;;0.95;;
43994;SDS011;51687;52.160;5.298;2022-07-29T01:54:30;7.18;;;1.45;;
43994;SDS011;51687;52.160;5.298;2022-07-29T01:57:04;3.50;;;0.77;;
43994;SDS011;51687;52.160;5.298;2022-07-29T01:59:33;1.75;;;1.17;;
43994;SDS011;51687;52.160;5.298;2022-07-29T02:02:02;3.78;;;1.02;;
43994;SDS011;51687;52.160;5.298;2022-07-29T02:04:30;2.63;;;0.98;;
43994;SDS011;51687;52.160;5.298;2022-07-29T02:07:03;3.85;;;1.40;;
43994;SDS011;51687;52.160;5.298;2022-07-29T02:09:33;2.40;;;1.02;;
43994;SDS011;51687;52.160;5.298;2022-07-29T02:12:02;3.15;;;1.17;;
43994;SDS011;51687;52.160;5.298;2022-07-29T02:14:33;2.72;;;1.02;;
43994;SDS011;51687;52.160;5.298;2022-07-29T02:17:08;3.10;;;1.10;;
43994;SDS011;51687;52.160;5.298;2022-07-29T02:19:38;7.75;;;1.30;;
43994;SDS011;51687;52.160;5.298;2022-07-29T02:22:06;2.38;;;1.10;;
43994;SDS011;51687;52.160;5.298;2022-07-29T02:24:36;2.05;;;1.35;;
43994;SDS011;51687;52.160;5.298;2022-07-29T02:27:06;2.70;;;1.38;;
43994;SDS011;51687;52.160;5.298;2022-07-29T02:29:34;2.58;;;1.08;;
43994;SDS011;51687;52.160;5.298;2022-07-29T02:32:02;3.75;;;1.77;;
43994;SDS011;51687;52.160;5.298;2022-07-29T02:34:30;5.40;;;1.10;;
43994;SDS011;51687;52.160;5.298;2022-07-29T02:36:58;2.03;;;1.08;;
43994;SDS011;51687;52.160;5.298;2022-07-29T02:39:25;1.63;;;1.10;;
43994;SDS011;51687;52.160;5.298;2022-07-29T02:41:55;4.25;;;1.60;;
43994;SDS011;51687;52.160;5.298;2022-07-29T02:44:27;3.17;;;1.23;;
43994;SDS011;51687;52.160;5.298;2022-07-29T02:52:38;3.38;;;1.55;;
43994;SDS011;51687;52.160;5.298;2022-07-29T02:55:25;1.93;;;1.20;;
43994;SDS011;51687;52.160;5.298;2022-07-29T02:58:01;2.72;;;1.20;;
43994;SDS011;51687;52.160;5.298;2022-07-29T03:00:39;3.08;;;1.30;;
43994;SDS011;51687;52.160;5.298;2022-07-29T03:03:08;3.78;;;1.52;;
43994;SDS011;51687;52.160;5.298;2022-07-29T03:05:38;2.42;;;1.35;;
43994;SDS011;51687;52.160;5.298;2022-07-29T03:08:06;3.00;;;1.20;;
43994;SDS011;51687;52.160;5.298;2022-07-29T03:10:36;2.55;;;1.48;;
43994;SDS011;51687;52.160;5.298;2022-07-29T03:13:05;3.13;;;1.17;;
43994;SDS011;51687;52.160;5.298;2022-07-29T03:15:33;3.40;;;1.30;;
43994;SDS011;51687;52.160;5.298;2022-07-29T03:18:01;2.23;;;1.37;;
43994;SDS011;51687;52.160;5.298;2022-07-29T03:20:28;5.85;;;1.30;;
43994;SDS011;51687;52.160;5.298;2022-07-29T03:22:55;2.60;;;1.20;;
43994;SDS011;51687;52.160;5.298;2022-07-29T03:25:22;1.70;;;1.20;;
43994;SDS011;51687;52.160;5.298;2022-07-29T03:27:49;3.00;;;1.40;;
43994;SDS011;51687;52.160;5.298;2022-07-29T03:30:16;1.75;;;0.85;;
43994;SDS011;51687;52.160;5.298;2022-07-29T03:32:47;2.58;;;1.08;;
43994;SDS011;51687;52.160;5.298;2022-07-29T03:35:14;6.40;;;1.48;;
43994;SDS011;51687;52.160;5.298;2022-07-29T03:37:43;1.95;;;1.17;;
43994;SDS011;51687;52.160;5.298;2022-07-29T03:40:12;3.30;;;1.30;;
43994;SDS011;51687;52.160;5.298;2022-07-29T03:42:44;3.58;;;1.30;;
43994;SDS011;51687;52.160;5.298;2022-07-29T03:45:13;3.10;;;1.25;;
43994;SDS011;51687;52.160;5.298;2022-07-29T03:47:48;1.85;;;1.23;;
43994;SDS011;51687;52.160;5.298;2022-07-29T03:50:25;3.65;;;1.30;;
43994;SDS011;51687;52.160;5.298;2022-07-29T03:52:53;2.88;;;1.17;;
43994;SDS011;51687;52.160;5.298;2022-07-29T03:55:20;2.33;;;1.30;;
43994;SDS011;51687;52.160;5.298;2022-07-29T03:57:47;2.17;;;1.08;;
43994;SDS011;51687;52.160;5.298;2022-07-29T04:00:15;2.42;;;1.42;;
43994;SDS011;51687;52.160;5.298;2022-07-29T04:02:43;2.38;;;1.30;;
43994;SDS011;51687;52.160;5.298;2022-07-29T04:05:15;1.92;;;1.00;;
43994;SDS011;51687;52.160;5.298;2022-07-29T04:07:43;2.03;;;1.33;;
43994;SDS011;51687;52.160;5.298;2022-07-29T04:10:11;4.47;;;1.33;;
43994;SDS011;51687;52.160;5.298;2022-07-29T04:12:38;2.28;;;1.13;;
43994;SDS011;51687;52.160;5.298;2022-07-29T04:15:05;4.05;;;1.30;;
43994;SDS011;51687;52.160;5.298;2022-07-29T04:17:32;2.67;;;1.25;;
43994;SDS011;51687;52.160;5.298;2022-07-29T04:19:59;3.65;;;1.35;;
43994;SDS011;51687;52.160;5.298;2022-07-29T04:22:26;2.45;;;1.40;;
43994;SDS011;51687;52.160;5.298;2022-07-29T04:24:52;2.58;;;1.20;;
43994;SDS011;51687;52.160;5.298;2022-07-29T04:27:19;1.35;;;1.15;;
43994;SDS011;51687;52.160;5.298;2022-07-29T04:29:46;2.40;;;1.27;;
43994;SDS011;51687;52.160;5.298;2022-07-29T04:32:23;2.35;;;1.25;;
43994;SDS011;51687;52.160;5.298;2022-07-29T04:34:53;5.30;;;1.38;;
43994;SDS011;51687;52.160;5.298;2022-07-29T04:37:19;1.98;;;1.15;;
43994;SDS011;51687;52.160;5.298;2022-07-29T04:39:46;2.25;;;1.13;;
43994;SDS011;51687;52.160;5.298;2022-07-29T04:42:13;2.33;;;0.98;;
43994;SDS011;51687;52.160;5.298;2022-07-29T04:44:42;2.28;;;1.10;;
43994;SDS011;51687;52.160;5.298;2022-07-29T04:47:09;1.75;;;1.05;;
43994;SDS011;51687;52.160;5.298;2022-07-29T04:49:38;2.63;;;1.30;;
43994;SDS011;51687;52.160;5.298;2022-07-29T04:52:05;2.60;;;0.90;;
43994;SDS011;51687;52.160;5.298;2022-07-29T04:54:32;2.60;;;1.30;;
43994;SDS011;51687;52.160;5.298;2022-07-29T04:56:59;3.70;;;1.30;;
43994;SDS011;51687;52.160;5.298;2022-07-29T04:59:26;2.92;;;1.23;;
43994;SDS011;51687;52.160;5.298;2022-07-29T05:01:53;1.25;;;0.98;;
43994;SDS011;51687;52.160;5.298;2022-07-29T05:04:20;2.13;;;1.30;;
43994;SDS011;51687;52.160;5.298;2022-07-29T05:06:47;2.17;;;1.30;;
43994;SDS011;51687;52.160;5.298;2022-07-29T05:09:14;3.72;;;1.10;;
43994;SDS011;51687;52.160;5.298;2022-07-29T05:11:41;2.03;;;1.13;;
43994;SDS011;51687;52.160;5.298;2022-07-29T05:14:08;1.63;;;1.52;;
43994;SDS011;51687;52.160;5.298;2022-07-29T05:16:34;4.80;;;1.30;;
43994;SDS011;51687;52.160;5.298;2022-07-29T05:19:01;2.72;;;1.50;;
43994;SDS011;51687;52.160;5.298;2022-07-29T05:21:28;2.25;;;1.38;;
43994;SDS011;51687;52.160;5.298;2022-07-29T05:23:55;2.22;;;1.10;;
43994;SDS011;51687;52.160;5.298;2022-07-29T05:26:22;3.75;;;1.52;;
43994;SDS011;51687;52.160;5.298;2022-07-29T05:28:48;1.88;;;1.30;;
43994;SDS011;51687;52.160;5.298;2022-07-29T05:31:15;1.75;;;1.20;;
43994;SDS011;51687;52.160;5.298;2022-07-29T05:33:42;3.22;;;1.42;;
43994;SDS011;51687;52.160;5.298;2022-07-29T05:36:09;2.65;;;1.25;;
43994;SDS011;51687;52.160;5.298;2022-07-29T05:38:36;2.45;;;1.42;;
43994;SDS011;51687;52.160;5.298;2022-07-29T05:41:05;1.70;;;1.25;;
43994;SDS011;51687;52.160;5.298;2022-07-29T05:43:32;4.05;;;1.30;;
43994;SDS011;51687;52.160;5.298;2022-07-29T05:45:59;3.17;;;1.52;;
43994;SDS011;51687;52.160;5.298;2022-07-29T05:48:26;3.80;;;1.20;;
43994;SDS011;51687;52.160;5.298;2022-07-29T05:50:53;2.30;;;1.45;;
43994;SDS011;51687;52.160;5.298;2022-07-29T05:53:20;1.88;;;1.35;;
43994;SDS011;51687;52.160;5.298;2022-07-29T05:55:47;2.45;;;1.30;;
43994;SDS011;51687;52.160;5.298;2022-07-29T05:58:15;2.20;;;1.27;;
43994;SDS011;51687;52.160;5.298;2022-07-29T06:00:42;2.50;;;1.60;;
43994;SDS011;51687;52.160;5.298;2022-07-29T06:03:08;2.42;;;1.48;;
43994;SDS011;51687;52.160;5.298;2022-07-29T06:05:35;3.00;;;1.50;;
43994;SDS011;51687;52.160;5.298;2022-07-29T06:08:02;4.78;;;1.65;;
43994;SDS011;51687;52.160;5.298;2022-07-29T06:10:31;4.25;;;1.67;;
43994;SDS011;51687;52.160;5.298;2022-07-29T06:12:58;7.20;;;1.40;;
43994;SDS011;51687;52.160;5.298;2022-07-29T06:15:25;4.03;;;1.58;;
43994;SDS011;51687;52.160;5.298;2022-07-29T06:17:52;4.13;;;1.75;;
43994;SDS011;51687;52.160;5.298;2022-07-29T06:20:29;6.97;;;1.40;;
43994;SDS011;51687;52.160;5.298;2022-07-29T06:22:57;4.30;;;1.38;;
43994;SDS011;51687;52.160;5.298;2022-07-29T06:25:25;3.90;;;1.20;;
43994;SDS011;51687;52.160;5.298;2022-07-29T06:27:52;3.03;;;1.35;;
43994;SDS011;51687;52.160;5.298;2022-07-29T06:30:19;1.75;;;1.20;;
43994;SDS011;51687;52.160;5.298;2022-07-29T06:32:54;5.88;;;1.35;;
43994;SDS011;51687;52.160;5.298;2022-07-29T06:35:21;1.85;;;1.30;;
43994;SDS011;51687;52.160;5.298;2022-07-29T06:38:08;2.28;;;1.02;;
43994;SDS011;51687;52.160;5.298;2022-07-29T06:40:56;3.47;;;1.30;;
43994;SDS011;51687;52.160;5.298;2022-07-29T06:43:36;3.42;;;1.20;;
43994;SDS011;51687;52.160;5.298;2022-07-29T06:46:17;3.20;;;1.40;;
43994;SDS011;51687;52.160;5.298;2022-07-29T06:48:46;3.08;;;1.70;;
43994;SDS011;51687;52.160;5.298;2022-07-29T06:51:16;3.35;;;1.75;;
43994;SDS011;51687;52.160;5.298;2022-07-29T06:53:48;4.88;;;1.45;;
43994;SDS011;51687;52.160;5.298;2022-07-29T06:56:28;3.42;;;1.50;;
43994;SDS011;51687;52.160;5.298;2022-07-29T06:59:04;4.10;;;1.60;;
43994;SDS011;51687;52.160;5.298;2022-07-29T07:01:32;3.05;;;1.60;;
43994;SDS011;51687;52.160;5.298;2022-07-29T07:03:59;6.97;;;1.70;;
43994;SDS011;51687;52.160;5.298;2022-07-29T07:06:26;3.38;;;1.48;;
43994;SDS011;51687;52.160;5.298;2022-07-29T07:08:53;3.55;;;1.65;;
43994;SDS011;51687;52.160;5.298;2022-07-29T07:11:20;3.97;;;1.67;;
43994;SDS011;51687;52.160;5.298;2022-07-29T07:13:47;2.92;;;1.33;;
43994;SDS011;51687;52.160;5.298;2022-07-29T07:16:13;4.50;;;1.50;;
43994;SDS011;51687;52.160;5.298;2022-07-29T07:18:41;4.03;;;1.70;;
43994;SDS011;51687;52.160;5.298;2022-07-29T07:21:07;8.80;;;1.90;;
43994;SDS011;51687;52.160;5.298;2022-07-29T07:23:34;7.53;;;1.67;;
43994;SDS011;51687;52.160;5.298;2022-07-29T07:26:01;2.50;;;1.63;;
43994;SDS011;51687;52.160;5.298;2022-07-29T07:28:29;6.68;;;2.10;;
43994;SDS011;51687;52.160;5.298;2022-07-29T07:30:55;3.55;;;1.83;;
43994;SDS011;51687;52.160;5.298;2022-07-29T07:33:22;7.13;;;1.77;;
43994;SDS011;51687;52.160;5.298;2022-07-29T07:35:49;5.63;;;1.65;;
43994;SDS011;51687;52.160;5.298;2022-07-29T07:38:16;7.28;;;1.85;;
43994;SDS011;51687;52.160;5.298;2022-07-29T07:40:46;5.00;;;1.80;;
43994;SDS011;51687;52.160;5.298;2022-07-29T07:43:12;3.53;;;1.80;;
43994;SDS011;51687;52.160;5.298;2022-07-29T07:45:39;2.22;;;1.48;;
43994;SDS011;51687;52.160;5.298;2022-07-29T07:48:06;3.38;;;1.88;;
43994;SDS011;51687;52.160;5.298;2022-07-29T07:50:33;2.70;;;1.55;;
43994;SDS011;51687;52.160;5.298;2022-07-29T07:53:00;5.03;;;1.73;;
43994;SDS011;51687;52.160;5.298;2022-07-29T07:55:28;4.20;;;1.95;;
43994;SDS011;51687;52.160;5.298;2022-07-29T07:58:15;6.20;;;2.05;;
43994;SDS011;51687;52.160;5.298;2022-07-29T08:00:41;4.90;;;2.28;;
43994;SDS011;51687;52.160;5.298;2022-07-29T08:03:08;3.75;;;1.92;;
43994;SDS011;51687;52.160;5.298;2022-07-29T08:05:42;2.47;;;2.05;;
43994;SDS011;51687;52.160;5.298;2022-07-29T08:08:10;9.88;;;2.13;;
43994;SDS011;51687;52.160;5.298;2022-07-29T08:10:36;5.85;;;1.88;;
43994;SDS011;51687;52.160;5.298;2022-07-29T08:13:19;3.55;;;2.10;;
43994;SDS011;51687;52.160;5.298;2022-07-29T08:15:47;3.17;;;2.25;;
43994;SDS011;51687;52.160;5.298;2022-07-29T08:18:24;3.25;;;2.00;;
43994;SDS011;51687;52.160;5.298;2022-07-29T08:20:51;5.25;;;2.60;;
43994;SDS011;51687;52.160;5.298;2022-07-29T08:23:18;3.97;;;2.17;;
43994;SDS011;51687;52.160;5.298;2022-07-29T08:25:45;4.28;;;2.05;;
43994;SDS011;51687;52.160;5.298;2022-07-29T08:28:15;3.97;;;2.50;;
43994;SDS011;51687;52.160;5.298;2022-07-29T08:30:43;4.03;;;2.28;;
43994;SDS011;51687;52.160;5.298;2022-07-29T08:33:09;6.40;;;2.20;;
43994;SDS011;51687;52.160;5.298;2022-07-29T08:35:36;5.03;;;2.53;;
43994;SDS011;51687;52.160;5.298;2022-07-29T08:38:05;6.63;;;2.35;;
43994;SDS011;51687;52.160;5.298;2022-07-29T08:40:32;3.75;;;2.22;;
43994;SDS011;51687;52.160;5.298;2022-07-29T08:43:03;3.45;;;2.15;;
43994;SDS011;51687;52.160;5.298;2022-07-29T08:45:39;6.00;;;2.20;;
43994;SDS011;51687;52.160;5.298;2022-07-29T08:48:14;3.47;;;2.20;;
43994;SDS011;51687;52.160;5.298;2022-07-29T08:50:42;4.07;;;1.90;;
43994;SDS011;51687;52.160;5.298;2022-07-29T08:53:15;3.53;;;1.50;;
43994;SDS011;51687;52.160;5.298;2022-07-29T08:55:47;5.03;;;2.20;;
43994;SDS011;51687;52.160;5.298;2022-07-29T08:58:18;3.15;;;1.90;;
43994;SDS011;51687;52.160;5.298;2022-07-29T09:00:54;3.67;;;2.03;;
43994;SDS011;51687;52.160;5.298;2022-07-29T09:03:23;6.53;;;2.58;;
43994;SDS011;51687;52.160;5.298;2022-07-29T09:05:52;4.50;;;2.10;;
43994;SDS011;51687;52.160;5.298;2022-07-29T09:08:19;4.07;;;2.45;;
43994;SDS011;51687;52.160;5.298;2022-07-29T09:10:47;3.17;;;2.63;;
43994;SDS011;51687;52.160;5.298;2022-07-29T09:13:14;5.15;;;2.50;;
43994;SDS011;51687;52.160;5.298;2022-07-29T09:15:41;8.25;;;2.72;;
43994;SDS011;51687;52.160;5.298;2022-07-29T09:18:08;4.47;;;2.72;;
43994;SDS011;51687;52.160;5.298;2022-07-29T09:20:54;4.20;;;2.65;;
43994;SDS011;51687;52.160;5.298;2022-07-29T09:23:40;4.97;;;2.90;;
43994;SDS011;51687;52.160;5.298;2022-07-29T09:26:07;4.88;;;2.22;;
43994;SDS011;51687;52.160;5.298;2022-07-29T09:28:34;3.92;;;2.17;;
43994;SDS011;51687;52.160;5.298;2022-07-29T09:31:09;2.42;;;1.55;;
43994;SDS011;51687;52.160;5.298;2022-07-29T09:33:36;8.18;;;1.92;;
43994;SDS011;51687;52.160;5.298;2022-07-29T09:36:06;5.32;;;1.67;;
43994;SDS011;51687;52.160;5.298;2022-07-29T09:38:34;5.97;;;2.20;;
43994;SDS011;51687;52.160;5.298;2022-07-29T09:41:03;2.45;;;1.52;;
43994;SDS011;51687;52.160;5.298;2022-07-29T09:43:32;10.25;;;2.17;;
43994;SDS011;51687;52.160;5.298;2022-07-29T09:46:10;4.47;;;1.95;;
43994;SDS011;51687;52.160;5.298;2022-07-29T09:48:38;4.28;;;1.40;;
43994;SDS011;51687;52.160;5.298;2022-07-29T09:51:05;3.58;;;1.33;;
43994;SDS011;51687;52.160;5.298;2022-07-29T09:53:47;4.80;;;1.52;;
43994;SDS011;51687;52.160;5.298;2022-07-29T09:56:14;4.18;;;2.00;;
43994;SDS011;51687;52.160;5.298;2022-07-29T09:58:41;9.50;;;1.75;;
43994;SDS011;51687;52.160;5.298;2022-07-29T10:01:07;5.00;;;2.00;;
43994;SDS011;51687;52.160;5.298;2022-07-29T10:03:49;4.15;;;1.67;;
43994;SDS011;51687;52.160;5.298;2022-07-29T10:06:18;5.47;;;2.20;;
43994;SDS011;51687;52.160;5.298;2022-07-29T10:08:46;3.97;;;2.88;;
43994;SDS011;51687;52.160;5.298;2022-07-29T10:11:16;5.05;;;2.15;;
43994;SDS011;51687;52.160;5.298;2022-07-29T10:13:45;6.80;;;2.65;;
43994;SDS011;51687;52.160;5.298;2022-07-29T10:16:14;5.68;;;2.78;;
43994;SDS011;51687;52.160;5.298;2022-07-29T10:18:42;4.53;;;2.20;;
43994;SDS011;51687;52.160;5.298;2022-07-29T10:21:10;4.82;;;1.75;;
43994;SDS011;51687;52.160;5.298;2022-07-29T10:23:57;5.10;;;2.08;;
43994;SDS011;51687;52.160;5.298;2022-07-29T10:26:26;3.67;;;2.20;;
43994;SDS011;51687;52.160;5.298;2022-07-29T10:28:55;5.18;;;2.08;;
43994;SDS011;51687;52.160;5.298;2022-07-29T10:31:24;3.70;;;1.70;;
43994;SDS011;51687;52.160;5.298;2022-07-29T10:34:09;5.70;;;1.65;;
43994;SDS011;51687;52.160;5.298;2022-07-29T10:42:20;9.88;;;1.88;;
43994;SDS011;51687;52.160;5.298;2022-07-29T10:45:02;4.38;;;1.83;;
43994;SDS011;51687;52.160;5.298;2022-07-29T10:47:30;3.00;;;2.00;;
43994;SDS011;51687;52.160;5.298;2022-07-29T10:50:03;3.95;;;2.50;;
43994;SDS011;51687;52.160;5.298;2022-07-29T10:58:16;4.25;;;2.47;;
43994;SDS011;51687;52.160;5.298;2022-07-29T11:00:51;4.35;;;2.30;;
43994;SDS011;51687;52.160;5.298;2022-07-29T11:06:16;6.65;;;2.55;;
43994;SDS011;51687;52.160;5.298;2022-07-29T11:09:14;6.65;;;2.65;;
43994;SDS011;51687;52.160;5.298;2022-07-29T11:11:50;6.80;;;2.47;;
43994;SDS011;51687;52.160;5.298;2022-07-29T11:14:20;5.70;;;2.30;;
43994;SDS011;51687;52.160;5.298;2022-07-29T11:17:24;6.43;;;2.33;;
43994;SDS011;51687;52.160;5.298;2022-07-29T11:19:51;6.80;;;2.58;;
43994;SDS011;51687;52.160;5.298;2022-07-29T11:22:40;5.55;;;2.35;;
43994;SDS011;51687;52.160;5.298;2022-07-29T11:25:13;3.97;;;2.38;;
43994;SDS011;51687;52.160;5.298;2022-07-29T11:27:42;3.13;;;2.83;;
43994;SDS011;51687;52.160;5.298;2022-07-29T11:30:11;10.30;;;2.63;;
43994;SDS011;51687;52.160;5.298;2022-07-29T11:32:40;2.60;;;2.03;;
43994;SDS011;51687;52.160;5.298;2022-07-29T11:35:15;7.90;;;2.38;;
43994;SDS011;51687;52.160;5.298;2022-07-29T11:43:52;4.82;;;3.15;;
43994;SDS011;51687;52.160;5.298;2022-07-29T11:49:19;2.88;;;2.63;;
43994;SDS011;51687;52.160;5.298;2022-07-29T11:51:58;3.08;;;2.78;;
43994;SDS011;51687;52.160;5.298;2022-07-29T11:54:32;4.97;;;2.85;;
43994;SDS011;51687;52.160;5.298;2022-07-29T11:57:20;3.88;;;3.13;;
43994;SDS011;51687;52.160;5.298;2022-07-29T11:59:47;5.93;;;3.20;;
43994;SDS011;51687;52.160;5.298;2022-07-29T12:02:14;5.22;;;3.33;;
43994;SDS011;51687;52.160;5.298;2022-07-29T12:05:02;9.32;;;2.97;;
43994;SDS011;51687;52.160;5.298;2022-07-29T12:07:48;9.15;;;3.60;;
43994;SDS011;51687;52.160;5.298;2022-07-29T12:10:17;6.03;;;3.55;;
43994;SDS011;51687;52.160;5.298;2022-07-29T12:15:23;3.45;;;3.15;;
43994;SDS011;51687;52.160;5.298;2022-07-29T12:18:15;7.57;;;3.17;;
43994;SDS011;51687;52.160;5.298;2022-07-29T12:20:44;6.60;;;3.67;;
43994;SDS011;51687;52.160;5.298;2022-07-29T12:23:11;10.15;;;3.78;;
43994;SDS011;51687;52.160;5.298;2022-07-29T12:25:42;6.47;;;2.80;;
43994;SDS011;51687;52.160;5.298;2022-07-29T12:28:15;8.38;;;3.00;;
43994;SDS011;51687;52.160;5.298;2022-07-29T12:30:53;6.38;;;4.95;;
43994;SDS011;51687;52.160;5.298;2022-07-29T12:35:51;5.47;;;3.15;;
43994;SDS011;51687;52.160;5.298;2022-07-29T12:38:32;4.25;;;3.22;;
43994;SDS011;51687;52.160;5.298;2022-07-29T12:41:01;8.27;;;3.08;;
43994;SDS011;51687;52.160;5.298;2022-07-29T12:43:29;4.50;;;3.00;;
43994;SDS011;51687;52.160;5.298;2022-07-29T12:45:56;3.85;;;3.08;;
43994;SDS011;51687;52.160;5.298;2022-07-29T12:48:33;9.00;;;3.08;;
43994;SDS011;51687;52.160;5.298;2022-07-29T12:51:02;6.20;;;3.63;;
43994;SDS011;51687;52.160;5.298;2022-07-29T12:53:30;4.95;;;3.97;;
43994;SDS011;51687;52.160;5.298;2022-07-29T12:55:57;4.03;;;2.45;;
43994;SDS011;51687;52.160;5.298;2022-07-29T12:58:41;6.28;;;3.00;;
43994;SDS011;51687;52.160;5.298;2022-07-29T13:01:16;3.60;;;2.97;;
43994;SDS011;51687;52.160;5.298;2022-07-29T13:06:41;4.93;;;2.75;;
43994;SDS011;51687;52.160;5.298;2022-07-29T13:09:16;5.57;;;2.90;;
43994;SDS011;51687;52.160;5.298;2022-07-29T13:11:45;7.55;;;3.05;;
43994;SDS011;51687;52.160;5.298;2022-07-29T13:14:28;5.35;;;3.40;;
43994;SDS011;51687;52.160;5.298;2022-07-29T13:17:03;3.97;;;3.28;;
43994;SDS011;51687;52.160;5.298;2022-07-29T13:19:43;6.50;;;3.00;;
43994;SDS011;51687;52.160;5.298;2022-07-29T13:22:18;5.38;;;3.42;;
43994;SDS011;51687;52.160;5.298;2022-07-29T13:24:59;4.15;;;3.30;;
43994;SDS011;51687;52.160;5.298;2022-07-29T13:27:31;7.68;;;2.70;;
43994;SDS011;51687;52.160;5.298;2022-07-29T13:30:01;5.85;;;3.13;;
43994;SDS011;51687;52.160;5.298;2022-07-29T13:32:30;9.98;;;3.30;;
43994;SDS011;51687;52.160;5.298;2022-07-29T13:34:59;4.75;;;2.78;;
43994;SDS011;51687;52.160;5.298;2022-07-29T13:37:31;4.60;;;2.33;;
43994;SDS011;51687;52.160;5.298;2022-07-29T13:40:00;5.40;;;2.90;;
43994;SDS011;51687;52.160;5.298;2022-07-29T13:42:29;12.88;;;2.97;;
43994;SDS011;51687;52.160;5.298;2022-07-29T13:44:57;6.95;;;2.50;;
43994;SDS011;51687;52.160;5.298;2022-07-29T13:47:24;3.03;;;2.20;;
43994;SDS011;51687;52.160;5.298;2022-07-29T13:49:58;4.93;;;2.72;;
43994;SDS011;51687;52.160;5.298;2022-07-29T13:52:31;6.47;;;2.58;;
43994;SDS011;51687;52.160;5.298;2022-07-29T13:55:00;4.18;;;2.63;;
43994;SDS011;51687;52.160;5.298;2022-07-29T13:57:27;14.68;;;2.80;;
43994;SDS011;51687;52.160;5.298;2022-07-29T13:59:54;8.27;;;2.28;;
43994;SDS011;51687;52.160;5.298;2022-07-29T14:02:21;5.63;;;2.77;;
43994;SDS011;51687;52.160;5.298;2022-07-29T14:04:51;5.20;;;2.55;;
43994;SDS011;51687;52.160;5.298;2022-07-29T14:07:19;5.85;;;2.63;;
43994;SDS011;51687;52.160;5.298;2022-07-29T14:09:46;2.78;;;2.28;;
43994;SDS011;51687;52.160;5.298;2022-07-29T14:12:13;4.22;;;2.25;;
43994;SDS011;51687;52.160;5.298;2022-07-29T14:14:40;5.00;;;1.70;;
43994;SDS011;51687;52.160;5.298;2022-07-29T14:17:08;6.63;;;1.73;;
43994;SDS011;51687;52.160;5.298;2022-07-29T14:22:06;3.95;;;1.65;;
43994;SDS011;51687;52.160;5.298;2022-07-29T14:24:34;2.97;;;1.58;;
43994;SDS011;51687;52.160;5.298;2022-07-29T14:27:03;5.53;;;1.67;;
43994;SDS011;51687;52.160;5.298;2022-07-29T14:29:32;4.05;;;2.15;;
43994;SDS011;51687;52.160;5.298;2022-07-29T14:32:03;5.13;;;1.30;;
43994;SDS011;51687;52.160;5.298;2022-07-29T14:34:32;3.78;;;1.38;;
43994;SDS011;51687;52.160;5.298;2022-07-29T14:36:59;4.38;;;1.20;;
43994;SDS011;51687;52.160;5.298;2022-07-29T14:39:29;4.38;;;1.60;;
43994;SDS011;51687;52.160;5.298;2022-07-29T14:41:57;7.72;;;1.42;;
43994;SDS011;51687;52.160;5.298;2022-07-29T14:44:25;5.95;;;1.58;;
43994;SDS011;51687;52.160;5.298;2022-07-29T14:46:58;10.45;;;1.70;;
43994;SDS011;51687;52.160;5.298;2022-07-29T14:49:26;6.40;;;1.50;;
43994;SDS011;51687;52.160;5.298;2022-07-29T14:51:53;3.37;;;1.63;;
43994;SDS011;51687;52.160;5.298;2022-07-29T14:54:20;6.33;;;1.40;;
43994;SDS011;51687;52.160;5.298;2022-07-29T14:56:47;3.25;;;1.38;;
43994;SDS011;51687;52.160;5.298;2022-07-29T14:59:16;5.13;;;1.45;;
43994;SDS011;51687;52.160;5.298;2022-07-29T15:01:47;3.45;;;1.45;;
43994;SDS011;51687;52.160;5.298;2022-07-29T15:04:13;3.28;;;1.38;;
43994;SDS011;51687;52.160;5.298;2022-07-29T15:06:40;5.88;;;1.48;;
43994;SDS011;51687;52.160;5.298;2022-07-29T15:09:07;7.93;;;1.35;;
43994;SDS011;51687;52.160;5.298;2022-07-29T15:11:34;6.03;;;1.45;;
43994;SDS011;51687;52.160;5.298;2022-07-29T15:14:03;3.47;;;1.10;;
43994;SDS011;51687;52.160;5.298;2022-07-29T15:16:31;2.80;;;1.00;;
43994;SDS011;51687;52.160;5.298;2022-07-29T15:18:58;4.18;;;1.27;;
43994;SDS011;51687;52.160;5.298;2022-07-29T15:23:53;2.97;;;1.17;;
43994;SDS011;51687;52.160;5.298;2022-07-29T15:26:20;6.10;;;1.30;;
43994;SDS011;51687;52.160;5.298;2022-07-29T15:28:47;4.78;;;1.20;;
43994;SDS011;51687;52.160;5.298;2022-07-29T15:31:14;6.30;;;1.08;;
43994;SDS011;51687;52.160;5.298;2022-07-29T15:33:41;3.10;;;1.10;;
43994;SDS011;51687;52.160;5.298;2022-07-29T15:36:08;5.43;;;2.45;;
43994;SDS011;51687;52.160;5.298;2022-07-29T15:38:36;5.50;;;1.00;;
43994;SDS011;51687;52.160;5.298;2022-07-29T15:41:07;3.20;;;1.17;;
43994;SDS011;51687;52.160;5.298;2022-07-29T15:43:34;3.60;;;0.93;;
43994;SDS011;51687;52.160;5.298;2022-07-29T15:46:01;2.72;;;1.00;;
43994;SDS011;51687;52.160;5.298;2022-07-29T15:48:46;5.57;;;1.25;;
43994;SDS011;51687;52.160;5.298;2022-07-29T15:51:13;2.83;;;0.80;;
43994;SDS011;51687;52.160;5.298;2022-07-29T15:53:40;1.80;;;0.85;;
43994;SDS011;51687;52.160;5.298;2022-07-29T15:56:07;3.40;;;1.00;;
43994;SDS011;51687;52.160;5.298;2022-07-29T15:58:34;3.97;;;1.08;;
43994;SDS011;51687;52.160;5.298;2022-07-29T16:01:00;4.47;;;1.33;;